Terminal Aerodrome Forecast
Issued by NWS Boston, MA

Home | Current Version | Previous Version | Text Only | Print | Product List | Glossary On
Versions: 1 2 3 4 5 6 7 8 9 10 11 12 13 14 15 16 17 18 19 20 21 22 23 24 25
000
FTUS41 KBOX 240520
TAFBOS
TAF
KBOS 240520Z 2406/2512 20005KT P6SM BKN150 OVC250
     FM241200 06003KT P6SM OVC120
     FM241600 09007KT P6SM OVC050
     FM250000 11005KT P6SM SCT100
     FM250700 09005KT P6SM BKN100=

USA.gov is the U.S. government's official web portal to all federal, state and local government web resources and services.